Řízení letového provozu České republiky
Letiste: LKVO Aktualizace: 22.09.2019 10:00:29  UTC
 METAR LKVO 22.09. 10:00 ...
METAR LKVO 221000Z 11010KT CAVOK 17/04 Q1016=